< < Back
Terminal Aerodrome Forecast


Current Version              Previous Versions:   1  2  3  4  5  6  7  8  9  

Terminal Aerodrome Forecast

481
FTUS44 KOHX 211700
TAFBNA
TAF
KBNA 211730Z 2118/2218 33010G20KT P6SM SCT025 BKN050
     FM220100 35005KT P6SM SCT250
     FM221400 01008KT P6SM FEW050=

Latest METAR

767
SAUS70 KWBC 220600 RRB
MTRBNA
METAR KBNA 220553Z 36008KT 10SM CLR 17/10 A3009 RMK AO2 SLP182 T01720100
10256 20172 403110172 53014


USA.gov is the U.S. government's official web portal to all federal, state and local government web resources and services.